Terminal Aerodrome Forecast
Issued by NWS

Home | Current Version | Previous Version | Text Only | Print | Product List | Glossary On
Versions: 1 2 3 4 5 6 7 8 9 10 11 12 13 14 15 16
000
FTUS43 KDLH 211723
TAFBRD
TAF
KBRD 211723Z 2118/2218 14004KT P6SM BKN100 BKN200
     FM212200 34004KT P6SM SCT200
     FM220300 VRB03KT P6SM SKC
     FM221400 31011G20KT P6SM SKC=

USA.gov is the U.S. government's official web portal to all federal, state and local government web resources and services.